createdAt,value
2019-04-27T00:01:23.329Z,10.25
2019-04-27T00:04:11.744Z,10.22
2019-04-27T00:06:46.449Z,10.18
2019-04-27T00:09:25.061Z,10.16
2019-04-27T00:12:00.091Z,10.12
2019-04-27T00:14:30.151Z,10.02
2019-04-27T00:17:21.116Z,10.05
2019-04-27T00:19:58.314Z,10.11
2019-04-27T00:22:50.186Z,10.19
2019-04-27T00:25:20.260Z,10.11
2019-04-27T00:27:50.466Z,10.16
2019-04-27T00:30:20.675Z,10.17
2019-04-27T00:32:50.781Z,10.19
2019-04-27T00:35:30.320Z,10.15
2019-04-27T00:38:17.408Z,10.15
2019-04-27T00:40:57.779Z,10.01
2019-04-27T00:43:27.866Z,9.97
2019-04-27T00:45:57.931Z,9.87
2019-04-27T00:48:28.028Z,9.86
2019-04-27T00:50:58.150Z,9.95
2019-04-27T00:53:28.233Z,9.90
2019-04-27T00:56:17.253Z,9.95
2019-04-27T00:59:18.746Z,9.92
2019-04-27T01:02:06.883Z,9.86
2019-04-27T01:04:39.314Z,9.82
2019-04-27T01:07:10.547Z,9.88
2019-04-27T01:09:40.651Z,9.88
2019-04-27T01:12:11.319Z,9.77
2019-04-27T01:14:42.798Z,9.73
2019-04-27T01:17:13.240Z,9.75
2019-04-27T01:19:43.320Z,9.69
2019-04-27T01:22:13.802Z,9.58
2019-04-27T01:24:43.890Z,9.49
2019-04-27T01:27:31.867Z,9.38
2019-04-27T01:30:02.056Z,9.40
2019-04-27T01:32:33.967Z,9.39
2019-04-27T01:35:03.975Z,9.42
2019-04-27T01:37:34.038Z,9.37
2019-04-27T01:40:05.708Z,9.46
2019-04-27T01:42:35.793Z,9.36
2019-04-27T01:45:06.439Z,9.36
2019-04-27T01:47:36.510Z,9.26
2019-04-27T01:50:08.635Z,9.28
2019-04-27T01:52:38.703Z,9.19
2019-04-27T01:55:08.788Z,9.10
2019-04-27T01:57:38.852Z,9.04
2019-04-27T02:00:29.479Z,8.93
2019-04-27T02:03:01.389Z,8.82
2019-04-27T02:05:49.256Z,8.88
2019-04-27T02:08:19.661Z,8.86
2019-04-27T02:10:49.803Z,8.85
2019-04-27T02:13:20.323Z,8.84
2019-04-27T02:15:50.440Z,8.88
2019-04-27T02:18:20.507Z,8.81
2019-04-27T02:20:59.675Z,8.76
2019-04-27T02:23:29.745Z,8.74
2019-04-27T02:25:59.839Z,8.83
2019-04-27T02:28:51.699Z,8.93
2019-04-27T02:31:43.617Z,8.88
2019-04-27T02:34:16.450Z,9.03
2019-04-27T02:36:46.569Z,9.10
2019-04-27T02:39:16.679Z,9.06
2019-04-27T02:41:46.753Z,8.92
2019-04-27T02:44:19.961Z,8.83
2019-04-27T02:46:50.499Z,8.87
2019-04-27T02:49:20.659Z,8.90
2019-04-27T02:52:15.998Z,8.91
2019-04-27T02:54:46.094Z,8.93
2019-04-27T02:57:16.172Z,8.93
2019-04-27T02:59:46.253Z,9.01
2019-04-27T03:02:35.281Z,9.03
2019-04-27T03:05:06.401Z,9.02
2019-04-27T03:07:36.472Z,8.95
2019-04-27T03:10:06.873Z,8.89
2019-04-27T03:12:42.853Z,8.84
2019-04-27T03:15:23.685Z,8.87
2019-04-27T03:18:11.079Z,8.91
2019-04-27T03:21:00.301Z,9.01
2019-04-27T03:23:30.511Z,8.95
2019-04-27T03:26:10.535Z,8.80
2019-04-27T03:28:40.441Z,8.81
2019-04-27T03:31:13.642Z,8.98
2019-04-27T03:33:43.305Z,9.01
2019-04-27T03:36:13.623Z,8.99
2019-04-27T03:38:43.706Z,9.03
2019-04-27T03:41:13.975Z,9.12
2019-04-27T03:43:44.055Z,9.12
2019-04-27T03:46:14.134Z,9.09
2019-04-27T03:48:44.195Z,9.00
2019-04-27T03:51:32.168Z,8.93
2019-04-27T03:54:22.197Z,8.88
2019-04-27T03:57:10.476Z,8.68
2019-04-27T03:59:59.667Z,8.59
2019-04-27T04:02:30.561Z,8.47
2019-04-27T04:05:00.792Z,8.45
2019-04-27T04:07:30.840Z,8.37
2019-04-27T04:10:00.938Z,8.33
2019-04-27T04:12:39.771Z,8.31
2019-04-27T04:15:11.887Z,8.30
2019-04-27T04:17:41.961Z,8.51
2019-04-27T04:20:12.163Z,8.41
2019-04-27T04:22:42.242Z,8.38
2019-04-27T04:25:12.324Z,8.44
2019-04-27T04:27:42.830Z,8.41
2019-04-27T04:30:13.099Z,8.37
2019-04-27T04:32:43.182Z,8.40
2019-04-27T04:35:21.869Z,8.44
2019-04-27T04:37:52.845Z,8.47
2019-04-27T04:40:30.800Z,8.45
2019-04-27T04:43:10.863Z,8.42
2019-04-27T04:45:50.100Z,8.40
2019-04-27T04:48:20.433Z,8.43
2019-04-27T04:50:50.505Z,8.43
2019-04-27T04:53:20.906Z,8.39
2019-04-27T04:55:51.009Z,8.37
2019-04-27T04:58:21.289Z,8.38
2019-04-27T05:00:51.331Z,8.35
2019-04-27T05:03:21.923Z,8.28
2019-04-27T05:05:52.151Z,8.27
2019-04-27T05:08:22.224Z,8.30
2019-04-27T05:10:52.284Z,8.29
2019-04-27T05:13:22.375Z,8.28
2019-04-27T05:15:52.459Z,8.27
2019-04-27T05:18:22.570Z,8.32
2019-04-27T05:21:10.463Z,8.40
2019-04-27T05:23:40.557Z,8.40
2019-04-27T05:26:10.643Z,8.38
2019-04-27T05:28:40.946Z,8.47
2019-04-27T05:31:10.975Z,8.49
2019-04-27T05:33:41.049Z,8.55
2019-04-27T05:36:11.139Z,8.59
2019-04-27T05:38:45.881Z,8.84
2019-04-27T05:41:13.037Z,8.93
2019-04-27T05:43:49.418Z,9.07
2019-04-27T05:46:41.106Z,9.16
2019-04-27T05:49:16.649Z,8.99
2019-04-27T05:51:48.470Z,9.13
2019-04-27T05:54:19.238Z,9.33
2019-04-27T05:56:49.419Z,9.33
2019-04-27T05:59:19.959Z,9.19
2019-04-27T06:01:50.143Z,9.30
2019-04-27T06:04:20.229Z,9.23
2019-04-27T06:06:50.289Z,9.29
2019-04-27T06:09:20.391Z,9.22
2019-04-27T06:11:50.816Z,9.26
2019-04-27T06:14:20.983Z,9.62
2019-04-27T06:16:51.492Z,9.93
2019-04-27T06:19:21.561Z,10.58
2019-04-27T06:21:51.652Z,10.94
2019-04-27T06:24:21.734Z,10.78
2019-04-27T06:26:51.821Z,10.37
2019-04-27T06:29:21.926Z,10.60
2019-04-27T06:31:52.001Z,11.60
2019-04-27T06:34:22.121Z,12.75
2019-04-27T06:36:52.219Z,13.11
2019-04-27T06:39:22.309Z,14.55
2019-04-27T06:41:52.409Z,14.94
2019-04-27T06:44:22.514Z,15.01
2019-04-27T06:46:52.679Z,15.10
2019-04-27T06:49:22.791Z,15.46
2019-04-27T06:51:52.923Z,15.14
2019-04-27T06:54:23.027Z,15.90
2019-04-27T06:56:53.091Z,16.41
2019-04-27T06:59:23.174Z,16.52
2019-04-27T07:01:53.270Z,16.77
2019-04-27T07:04:23.392Z,16.96
2019-04-27T07:06:56.118Z,16.82
2019-04-27T07:09:25.363Z,16.67
2019-04-27T07:11:55.501Z,15.93
2019-04-27T07:14:25.605Z,16.45
2019-04-27T07:16:55.749Z,16.76
2019-04-27T07:19:25.987Z,16.46
2019-04-27T07:21:56.151Z,16.76
2019-04-27T07:24:26.222Z,16.97
2019-04-27T07:26:56.466Z,17.46
2019-04-27T07:29:26.608Z,17.49
2019-04-27T07:31:57.016Z,16.84
2019-04-27T07:34:29.032Z,17.47
2019-04-27T07:36:59.802Z,17.70
2019-04-27T07:39:30.111Z,17.22
2019-04-27T07:42:01.035Z,18.16
2019-04-27T07:44:39.116Z,18.42
2019-04-27T07:47:34.951Z,18.62
2019-04-27T07:50:05.313Z,18.17
2019-04-27T07:52:37.846Z,17.83
2019-04-27T07:55:09.362Z,18.56
2019-04-27T07:57:40.055Z,17.78
2019-04-27T08:00:10.447Z,17.40
2019-04-27T08:02:40.576Z,17.59
2019-04-27T08:05:10.655Z,18.18
2019-04-27T08:07:41.189Z,18.11
2019-04-27T08:10:11.938Z,18.21
2019-04-27T08:12:42.090Z,18.85
2019-04-27T08:15:12.307Z,18.92
2019-04-27T08:17:42.912Z,18.81
2019-04-27T08:20:13.199Z,19.78
2019-04-27T08:22:43.301Z,19.95
2019-04-27T08:25:13.429Z,20.06
2019-04-27T08:28:00.295Z,20.00
2019-04-27T08:30:49.531Z,18.59
2019-04-27T08:33:19.635Z,19.38
2019-04-27T08:35:49.760Z,19.34
2019-04-27T08:38:20.684Z,19.29
2019-04-27T08:40:50.886Z,19.40
2019-04-27T08:43:21.006Z,19.73
2019-04-27T08:45:51.081Z,19.55
2019-04-27T08:48:33.949Z,19.74
2019-04-27T08:50:53.047Z,19.33
2019-04-27T08:53:23.147Z,19.51
2019-04-27T08:55:53.246Z,19.96
2019-04-27T08:58:23.395Z,19.74
2019-04-27T09:00:53.487Z,20.17
2019-04-27T09:03:23.602Z,20.39
2019-04-27T09:05:53.721Z,20.47
2019-04-27T09:08:42.135Z,20.36
2019-04-27T09:11:34.174Z,19.93
2019-04-27T09:14:14.213Z,20.19
2019-04-27T09:17:02.216Z,21.32
2019-04-27T09:19:53.865Z,20.76
2019-04-27T09:22:23.993Z,20.92
2019-04-27T09:24:54.120Z,20.64
2019-04-27T09:27:24.244Z,20.84
2019-04-27T09:29:54.339Z,20.55
2019-04-27T09:32:24.473Z,21.31
2019-04-27T09:34:54.571Z,21.44
2019-04-27T09:37:24.643Z,21.75
2019-04-27T09:39:56.123Z,21.94
2019-04-27T09:42:26.818Z,21.72
2019-04-27T09:44:57.139Z,20.13
2019-04-27T09:47:27.219Z,19.16
2019-04-27T09:49:57.349Z,20.83
2019-04-27T09:52:28.699Z,19.10
2019-04-27T09:54:58.832Z,18.69
2019-04-27T09:57:28.892Z,18.85
2019-04-27T09:59:59.008Z,18.81
2019-04-27T10:02:29.089Z,18.34
2019-04-27T10:04:59.217Z,19.47
2019-04-27T10:07:29.299Z,20.93
2019-04-27T10:10:01.201Z,20.88
2019-04-27T10:12:34.186Z,21.53
2019-04-27T10:15:03.331Z,20.79
2019-04-27T10:17:33.426Z,19.32
2019-04-27T10:20:03.535Z,21.07
2019-04-27T10:22:41.118Z,20.73
2019-04-27T10:25:06.526Z,21.33
2019-04-27T10:27:36.713Z,22.13
2019-04-27T10:30:09.044Z,20.98
2019-04-27T10:32:39.232Z,20.10
2019-04-27T10:35:09.461Z,19.51
2019-04-27T10:37:39.596Z,19.56
2019-04-27T10:40:09.808Z,20.94
2019-04-27T10:42:39.890Z,21.61
2019-04-27T10:45:11.865Z,22.18
2019-04-27T10:47:41.970Z,22.02
2019-04-27T10:50:12.285Z,20.29
2019-04-27T10:52:52.848Z,20.34
2019-04-27T10:55:16.021Z,19.70
2019-04-27T10:57:46.301Z,20.17
2019-04-27T11:00:20.318Z,22.53
2019-04-27T11:02:50.411Z,20.90
2019-04-27T11:05:32.052Z,20.22
2019-04-27T11:08:02.164Z,20.38
2019-04-27T11:10:32.243Z,20.02
2019-04-27T11:13:02.928Z,22.68
2019-04-27T11:15:33.096Z,22.93
2019-04-27T11:18:03.197Z,23.86
2019-04-27T11:20:33.312Z,23.13
2019-04-27T11:23:09.360Z,21.20
2019-04-27T11:25:36.476Z,19.98
2019-04-27T11:28:06.610Z,19.60
2019-04-27T11:30:36.811Z,22.43
2019-04-27T11:33:06.951Z,23.44
2019-04-27T11:36:06.283Z,21.37
2019-04-27T11:38:36.603Z,20.83
2019-04-27T11:41:07.557Z,20.66
2019-04-27T11:43:37.723Z,21.06
2019-04-27T11:46:07.841Z,20.00
2019-04-27T11:48:37.949Z,19.77
2019-04-27T11:51:10.918Z,19.39
2019-04-27T11:53:39.917Z,19.09
2019-04-27T11:56:10.181Z,18.72
2019-04-27T11:58:40.280Z,19.33
2019-04-27T12:01:10.407Z,20.39
2019-04-27T12:03:40.575Z,21.11
2019-04-27T12:06:10.731Z,22.30
2019-04-27T12:08:41.597Z,22.48
2019-04-27T12:11:12.154Z,23.13
2019-04-27T12:13:42.264Z,23.56
2019-04-27T12:16:21.466Z,23.62
2019-04-27T12:18:51.553Z,22.90
2019-04-27T12:21:21.696Z,21.29
2019-04-27T12:23:51.799Z,20.13
2019-04-27T12:26:39.689Z,20.40
2019-04-27T12:29:11.670Z,21.55
2019-04-27T12:31:46.448Z,21.09
2019-04-27T12:34:16.302Z,20.69
2019-04-27T12:36:46.522Z,19.92
2019-04-27T12:39:16.641Z,21.02
2019-04-27T12:41:46.740Z,22.11
2019-04-27T12:44:16.892Z,22.37
2019-04-27T12:46:47.127Z,22.08
2019-04-27T12:49:17.262Z,22.49
2019-04-27T12:51:47.442Z,23.41
2019-04-27T12:54:26.880Z,22.67
2019-04-27T12:57:20.796Z,21.52
2019-04-27T13:00:08.268Z,21.69
2019-04-27T13:02:38.517Z,22.98
2019-04-27T13:05:09.722Z,22.17
2019-04-27T13:07:39.846Z,21.49
2019-04-27T13:10:10.039Z,21.07
2019-04-27T13:12:40.127Z,20.51
2019-04-27T13:15:11.063Z,20.10
2019-04-27T13:17:41.264Z,20.37
2019-04-27T13:20:11.398Z,20.02
2019-04-27T13:22:41.563Z,19.57
2019-04-27T13:25:13.342Z,19.42
2019-04-27T13:27:43.413Z,19.11
2019-04-27T13:30:13.713Z,19.16
2019-04-27T13:32:43.790Z,18.55
2019-04-27T13:35:15.714Z,17.90
2019-04-27T13:37:46.727Z,18.32
2019-04-27T13:40:17.470Z,18.34
2019-04-27T13:43:02.595Z,18.37
2019-04-27T13:46:12.627Z,18.19
2019-04-27T13:49:03.976Z,17.53
2019-04-27T13:51:40.349Z,17.77
2019-04-27T13:54:18.644Z,17.16
2019-04-27T13:56:42.273Z,16.26
2019-04-27T13:59:15.096Z,15.79
2019-04-27T14:01:45.236Z,15.35
2019-04-27T14:04:15.376Z,15.11
2019-04-27T14:06:45.549Z,14.67
2019-04-27T14:09:15.704Z,14.58
2019-04-27T14:11:45.843Z,14.48
2019-04-27T14:14:16.052Z,14.22
2019-04-27T14:16:46.158Z,13.88
2019-04-27T14:19:16.291Z,14.01
2019-04-27T14:21:46.492Z,13.91
2019-04-27T14:24:27.462Z,13.95
2019-04-27T14:26:48.650Z,13.84
2019-04-27T14:29:19.004Z,13.93
2019-04-27T14:31:49.820Z,14.08
2019-04-27T14:34:20.020Z,13.97
2019-04-27T14:36:50.152Z,14.06
2019-04-27T14:39:20.463Z,14.08
2019-04-27T14:41:50.606Z,13.80
2019-04-27T14:44:20.744Z,13.72
2019-04-27T14:46:50.867Z,13.59
2019-04-27T14:49:20.971Z,13.57
2019-04-27T14:51:51.083Z,13.70
2019-04-27T14:54:21.196Z,13.82
2019-04-27T14:56:51.363Z,13.77
2019-04-27T14:59:21.448Z,13.68
2019-04-27T15:01:51.719Z,13.50
2019-04-27T15:04:21.823Z,13.62
2019-04-27T15:06:51.967Z,13.45
2019-04-27T15:09:23.919Z,13.36
2019-04-27T15:11:54.988Z,13.11
2019-04-27T15:14:25.700Z,12.96
2019-04-27T15:16:56.524Z,12.87
2019-04-27T15:19:34.823Z,12.99
2019-04-27T15:22:06.302Z,13.03
2019-04-27T15:24:36.409Z,13.01
2019-04-27T15:27:08.284Z,13.21
2019-04-27T15:29:38.403Z,13.19
2019-04-27T15:32:12.959Z,13.37
2019-04-27T15:34:53.215Z,13.54
2019-04-27T15:37:34.196Z,13.25
2019-04-27T15:40:36.448Z,13.12
2019-04-27T15:43:27.296Z,13.26
2019-04-27T15:45:57.761Z,13.09
2019-04-27T15:48:30.520Z,12.97
2019-04-27T15:51:02.891Z,12.98
2019-04-27T15:53:30.683Z,12.98
2019-04-27T15:56:01.949Z,12.89
2019-04-27T15:58:32.195Z,12.94
2019-04-27T16:01:06.723Z,12.91
2019-04-27T16:03:35.548Z,12.95
2019-04-27T16:06:08.217Z,12.84
2019-04-27T16:08:44.331Z,12.99
2019-04-27T16:11:16.293Z,13.10
2019-04-27T16:13:41.436Z,13.07
2019-04-27T16:16:11.646Z,13.31
2019-04-27T16:18:41.809Z,13.46
2019-04-27T16:21:11.946Z,13.44
2019-04-27T16:23:43.210Z,13.49
2019-04-27T16:26:15.106Z,13.39
2019-04-27T16:28:49.722Z,13.44
2019-04-27T16:31:18.624Z,13.36
2019-04-27T16:33:49.655Z,13.28
2019-04-27T16:36:20.287Z,13.03
2019-04-27T16:38:56.139Z,12.86
2019-04-27T16:41:28.057Z,12.87
2019-04-27T16:43:58.262Z,12.94
2019-04-27T16:46:28.600Z,12.88
2019-04-27T16:48:59.485Z,13.00
2019-04-27T16:51:35.936Z,12.84
2019-04-27T16:54:01.591Z,12.88
2019-04-27T16:56:31.703Z,13.08
2019-04-27T16:59:20.889Z,12.63
2019-04-27T17:01:33.664Z,12.75
2019-04-27T17:04:06.460Z,12.84
2019-04-27T17:06:40.734Z,12.93
2019-04-27T17:09:11.474Z,12.96
2019-04-27T17:11:43.901Z,12.81
2019-04-27T17:14:34.768Z,12.77
2019-04-27T17:17:21.804Z,12.70
2019-04-27T17:19:58.655Z,12.63
2019-04-27T17:22:28.986Z,12.67
2019-04-27T17:24:59.072Z,12.75
2019-04-27T17:27:38.359Z,12.73
2019-04-27T17:30:10.022Z,12.59
2019-04-27T17:32:51.091Z,12.49
2019-04-27T17:35:21.297Z,12.40
2019-04-27T17:37:54.223Z,12.35
2019-04-27T17:40:23.246Z,12.18
2019-04-27T17:42:53.386Z,12.20
2019-04-27T17:45:23.600Z,12.14
2019-04-27T17:47:53.730Z,12.22
2019-04-27T17:50:25.173Z,11.99
2019-04-27T17:52:57.379Z,11.82
2019-04-27T17:55:27.943Z,11.69
2019-04-27T17:58:04.962Z,11.68
2019-04-27T18:00:32.970Z,11.36
2019-04-27T18:03:02.217Z,11.13
2019-04-27T18:05:32.363Z,10.99
2019-04-27T18:08:02.560Z,10.94
2019-04-27T18:10:32.667Z,10.86
2019-04-27T18:13:02.793Z,10.74
2019-04-27T18:15:32.922Z,10.68
2019-04-27T18:18:10.959Z,10.69
2019-04-27T18:20:41.113Z,10.82
2019-04-27T18:23:16.210Z,10.67
2019-04-27T18:25:52.339Z,10.74
2019-04-27T18:28:25.572Z,10.76
2019-04-27T18:31:15.928Z,10.69
2019-04-27T18:33:45.068Z,10.70
2019-04-27T18:36:15.336Z,10.61
2019-04-27T18:38:45.547Z,10.46
2019-04-27T18:41:15.914Z,10.35
2019-04-27T18:43:51.308Z,10.34
2019-04-27T18:46:21.727Z,10.32
2019-04-27T18:49:09.498Z,10.28
2019-04-27T18:52:04.284Z,10.21
2019-04-27T18:54:38.229Z,10.14
2019-04-27T18:57:06.084Z,10.07
2019-04-27T18:59:38.066Z,10.04
2019-04-27T19:02:08.632Z,10.06
2019-04-27T19:04:38.884Z,10.03
2019-04-27T19:07:09.525Z,10.01
2019-04-27T19:09:40.095Z,9.93
2019-04-27T19:12:10.424Z,10.02
2019-04-27T19:14:41.148Z,9.95
2019-04-27T19:17:12.032Z,9.91
2019-04-27T19:19:44.970Z,9.70
2019-04-27T19:22:15.852Z,9.54
2019-04-27T19:24:46.669Z,9.46
2019-04-27T19:27:42.601Z,9.57
2019-04-27T19:30:28.044Z,9.53
2019-04-27T19:32:58.603Z,9.48
2019-04-27T19:35:30.256Z,9.49
2019-04-27T19:38:01.116Z,9.52
2019-04-27T19:40:31.953Z,9.57
2019-04-27T19:43:05.363Z,9.53
2019-04-27T19:45:35.698Z,9.78
2019-04-27T19:48:05.991Z,9.67
2019-04-27T19:50:36.341Z,9.68
2019-04-27T19:53:06.535Z,9.49
2019-04-27T19:55:36.705Z,9.42
2019-04-27T19:58:08.042Z,9.37
2019-04-27T20:00:44.824Z,9.34
2019-04-27T20:03:19.333Z,9.31
2019-04-27T20:05:49.581Z,9.27
2019-04-27T20:08:23.383Z,9.30
2019-04-27T20:10:53.562Z,9.20
2019-04-27T20:13:23.916Z,9.06
2019-04-27T20:15:54.138Z,8.98
2019-04-27T20:18:24.413Z,8.97
2019-04-27T20:20:55.231Z,8.81
2019-04-27T20:23:25.628Z,8.85
2019-04-27T20:25:55.870Z,8.78
2019-04-27T20:28:26.072Z,8.70
2019-04-27T20:30:56.350Z,8.73
2019-04-27T20:33:26.505Z,8.70
2019-04-27T20:35:56.671Z,8.69
2019-04-27T20:38:26.823Z,8.63
2019-04-27T20:40:56.932Z,8.57
2019-04-27T20:43:27.027Z,8.73
2019-04-27T20:45:57.684Z,8.75
2019-04-27T20:48:27.835Z,8.74
2019-04-27T20:50:57.981Z,8.74
2019-04-27T20:53:32.587Z,8.75
2019-04-27T20:56:02.659Z,8.69
2019-04-27T20:58:32.924Z,8.59
2019-04-27T21:01:03.032Z,8.60
2019-04-27T21:03:37.871Z,8.46
2019-04-27T21:06:24.995Z,8.57
2019-04-27T21:08:55.125Z,8.50
2019-04-27T21:11:26.884Z,8.44
2019-04-27T21:13:57.138Z,8.31
2019-04-27T21:16:27.259Z,8.23
2019-04-27T21:18:57.383Z,8.26
2019-04-27T21:21:27.482Z,8.32
2019-04-27T21:23:57.601Z,8.18
2019-04-27T21:26:27.721Z,8.18
2019-04-27T21:28:57.823Z,8.08
2019-04-27T21:31:27.896Z,7.96
2019-04-27T21:33:58.015Z,8.13
2019-04-27T21:36:28.165Z,8.15
2019-04-27T21:38:58.276Z,8.23
2019-04-27T21:41:28.396Z,8.14
2019-04-27T21:43:58.517Z,8.09
2019-04-27T21:46:31.713Z,8.07
2019-04-27T21:49:02.879Z,7.95
2019-04-27T21:51:34.714Z,8.13
2019-04-27T21:54:17.413Z,8.04
2019-04-27T21:56:47.480Z,7.93
2019-04-27T21:59:21.073Z,8.05
2019-04-27T22:01:55.481Z,8.13
2019-04-27T22:04:27.150Z,8.15
2019-04-27T22:06:57.251Z,8.23
2019-04-27T22:09:28.075Z,8.22
2019-04-27T22:11:58.515Z,8.21
2019-04-27T22:14:28.593Z,8.15
2019-04-27T22:16:58.711Z,8.15
2019-04-27T22:19:31.131Z,8.16
2019-04-27T22:22:03.027Z,8.35
2019-04-27T22:24:36.323Z,8.43
2019-04-27T22:27:06.417Z,8.31
2019-04-27T22:29:36.506Z,8.29
2019-04-27T22:32:06.625Z,8.21
2019-04-27T22:34:36.721Z,8.25
2019-04-27T22:37:06.801Z,8.17
2019-04-27T22:39:46.629Z,8.10
2019-04-27T22:42:51.638Z,8.21
2019-04-27T22:45:25.084Z,8.22
2019-04-27T22:47:55.159Z,8.27
2019-04-27T22:50:25.273Z,8.22
2019-04-27T22:52:56.835Z,8.28
2019-04-27T22:55:27.011Z,8.16
2019-04-27T22:58:14.055Z,8.28
2019-04-27T23:00:55.415Z,8.15
2019-04-27T23:03:31.264Z,8.11
2019-04-27T23:06:01.479Z,8.08
2019-04-27T23:08:32.178Z,8.13
2019-04-27T23:11:02.649Z,8.18
2019-04-27T23:13:32.779Z,8.15
2019-04-27T23:16:04.747Z,8.05
2019-04-27T23:18:34.887Z,8.16
2019-04-27T23:21:05.037Z,8.22
2019-04-27T23:23:35.143Z,8.15
2019-04-27T23:26:05.305Z,8.14
2019-04-27T23:28:35.498Z,8.20
2019-04-27T23:31:27.640Z,8.21
2019-04-27T23:33:57.755Z,8.24
2019-04-27T23:36:27.861Z,8.15
2019-04-27T23:38:57.979Z,8.21
2019-04-27T23:41:28.071Z,8.42
2019-04-27T23:43:58.181Z,8.33
2019-04-27T23:46:28.280Z,8.23
2019-04-27T23:48:58.368Z,8.18
2019-04-27T23:51:38.267Z,8.10
2019-04-27T23:54:08.378Z,8.00
2019-04-27T23:56:38.475Z,7.89
2019-04-27T23:59:08.578Z,7.97
